Culleredo, Spain
Current Conditions -  °F | °C
As of 1:00 AM on Friday 28 Nov 2014 (Local Time) from LECO Reporting Station
Clear Clear  
Wind Chill: 59°   Ceiling: Unl
Heat Index: 59°   Visibility: 6mi
Dew Point: 45°   Wind: 17mph
Humidity: 59%   Direction: 160°SSE
Pressure: 28.88"   Gusts: 36mph
Location:  43.29°N, 8.39°W
Report Text: LECO 280000Z 16015G31KT 100V200 CAVOK 15/07 Q0978 NOSIG
Loading
Personal Weather Stations






























Interactive Weather Map New forecast layout! Learn more

10-Day Weather Forecast

Advertisements
Track Severe Weather on mobile